Time;durP1;ratioP1;P1;durP2;ratioP2;P2;SDS_P1;SDS_P2;PMS_P1;PMS_P2;Temp;Humidity;BMP_temperature;BMP_pressure;BME280_temperature;BME280_humidity;BME280_pressure;Samples;Min_cycle;Max_cycle;Signal;HPM_P1;HPM_P2
2023/11/19 00:00:29;;;;;;;6.70;5.40;;;;;;;0.90;88.05;95824.16;106817;1274;25724;-81
2023/11/19 00:03:17;;;;;;;6.30;4.30;;;;;;;0.85;88.09;95829.77;106793;1274;22523;-81
2023/11/19 00:05:46;;;;;;;5.70;4.50;;;;;;;0.78;88.01;95830.30;106730;1270;22676;-82
2023/11/19 00:08:14;;;;;;;7.40;5.10;;;;;;;0.72;88.34;95825.50;106871;1274;22660;-82
2023/11/19 00:10:42;;;;;;;6.60;5.40;;;;;;;0.70;88.60;95823.36;106718;1274;24229;-81
2023/11/19 00:13:10;;;;;;;10.60;6.50;;;;;;;0.73;88.90;95827.57;106696;1274;22639;-82
2023/11/19 00:15:38;;;;;;;7.80;5.70;;;;;;;0.78;88.89;95840.86;106799;1274;25262;-81
2023/11/19 00:18:06;;;;;;;7.70;5.80;;;;;;;0.76;88.57;95846.02;106728;1274;24247;-82
2023/11/19 00:20:35;;;;;;;7.40;5.30;;;;;;;0.78;88.72;95847.96;106795;1274;22534;-81
2023/11/19 00:23:03;;;;;;;6.60;5.40;;;;;;;0.76;88.63;95850.86;106869;1274;22535;-81
2023/11/19 00:25:31;;;;;;;6.90;5.70;;;;;;;0.73;88.41;95858.05;106734;1274;22649;-81
2023/11/19 00:27:59;;;;;;;6.60;4.50;;;;;;;0.68;88.17;95858.81;106745;1274;25386;-81
2023/11/19 00:30:28;;;;;;;4.30;3.50;;;;;;;0.59;88.05;95860.52;106935;1274;25453;-81
2023/11/19 00:32:56;;;;;;;5.50;4.20;;;;;;;0.51;88.10;95865.15;106772;1274;22770;-81
2023/11/19 00:35:24;;;;;;;5.40;4.20;;;;;;;0.48;88.37;95861.27;106776;1274;25524;-81
2023/11/19 00:37:54;;;;;;;4.90;3.80;;;;;;;0.43;88.58;95854.94;106685;1274;22527;-81
2023/11/19 00:40:22;;;;;;;5.90;4.50;;;;;;;0.41;88.59;95861.63;106743;1274;22521;-81
2023/11/19 00:42:51;;;;;;;5.80;4.20;;;;;;;0.36;88.68;95864.61;106910;1274;22652;-80
2023/11/19 00:45:19;;;;;;;6.20;4.40;;;;;;;0.35;88.64;95864.92;106609;1274;25229;-81
2023/11/19 00:47:47;;;;;;;9.50;5.30;;;;;;;0.28;88.59;95861.63;106707;1274;25357;-80
2023/11/19 00:50:15;;;;;;;6.80;5.50;;;;;;;0.25;88.48;95860.18;106910;1274;23938;-81
2023/11/19 00:52:43;;;;;;;8.90;6.00;;;;;;;0.25;88.66;95857.58;106663;1274;24543;-81
2023/11/19 00:55:12;;;;;;;7.10;5.70;;;;;;;0.27;88.76;95846.73;106699;1274;22635;-81
2023/11/19 00:57:40;;;;;;;9.20;6.20;;;;;;;0.28;88.71;95840.54;106807;1274;24344;-80
2023/11/19 01:00:18;;;;;;;10.20;7.50;;;;;;;0.31;88.87;95842.52;106735;1275;22523;-80
2023/11/19 01:02:49;;;;;;;8.80;6.50;;;;;;;0.34;88.88;95841.54;106666;1275;25496;-80
2023/11/19 01:05:22;;;;;;;8.00;6.20;;;;;;;0.36;88.91;95843.85;106856;1274;25425;-81
2023/11/19 01:07:53;;;;;;;8.20;6.30;;;;;;;0.39;88.94;95844.11;106773;1274;24282;-81
2023/11/19 01:10:24;;;;;;;9.70;6.50;;;;;;;0.48;89.30;95848.46;106811;1275;22654;-80
2023/11/19 01:12:52;;;;;;;8.10;5.80;;;;;;;0.55;89.08;95843.09;106779;1275;24068;-81
2023/11/19 01:15:22;;;;;;;8.70;6.40;;;;;;;0.59;88.96;95844.05;106805;1275;22534;-82
2023/11/19 01:17:51;;;;;;;9.10;5.90;;;;;;;0.66;88.99;95849.93;106902;1274;22526;-80
2023/11/19 01:20:21;;;;;;;7.60;5.30;;;;;;;0.67;88.43;95848.59;106809;1275;23896;-81
2023/11/19 01:22:50;;;;;;;7.30;5.90;;;;;;;0.67;88.11;95846.83;106795;1274;22526;-81
2023/11/19 01:25:18;;;;;;;7.00;5.60;;;;;;;0.65;88.26;95847.48;106759;1274;22529;-81
2023/11/19 01:27:47;;;;;;;7.50;5.50;;;;;;;0.70;88.56;95843.79;106767;1272;24217;-82
2023/11/19 01:30:15;;;;;;;7.90;5.60;;;;;;;0.70;88.19;95842.59;106801;1274;24397;-82
2023/11/19 01:32:44;;;;;;;7.00;5.10;;;;;;;0.67;87.81;95846.51;106847;1274;22536;-82
2023/11/19 01:35:12;;;;;;;6.80;5.60;;;;;;;0.62;87.70;95848.11;106792;1274;24289;-82
2023/11/19 01:37:41;;;;;;;8.60;4.40;;;;;;;0.64;87.93;95844.16;106621;1274;23893;-81
2023/11/19 01:40:11;;;;;;;6.30;5.10;;;;;;;0.67;87.92;95836.97;106777;1274;22993;-81
2023/11/19 01:42:40;;;;;;;6.40;4.90;;;;;;;0.65;87.41;95824.81;106763;1274;22523;-82
2023/11/19 01:45:09;;;;;;;6.60;4.50;;;;;;;0.61;87.02;95819.68;106621;1275;22679;-81
2023/11/19 01:47:39;;;;;;;5.40;4.30;;;;;;;0.59;87.16;95823.11;106767;1274;24359;-82
2023/11/19 01:50:08;;;;;;;6.00;3.90;;;;;;;0.53;86.75;95824.00;106716;1264;22520;-83
2023/11/19 01:52:37;;;;;;;5.80;4.80;;;;;;;0.44;86.69;95826.73;106813;1275;23337;-82
2023/11/19 01:55:10;;;;;;;6.40;5.00;;;;;;;0.40;87.25;95825.77;106929;1274;25571;-81
2023/11/19 01:57:41;;;;;;;7.00;5.50;;;;;;;0.43;87.59;95825.01;106645;1274;25394;-81
2023/11/19 02:00:16;;;;;;;6.40;5.00;;;;;;;0.44;87.45;95831.41;106821;1263;24402;-82
2023/11/19 02:02:46;;;;;;;5.90;4.40;;;;;;;0.43;87.26;95832.08;106759;1274;22818;-82
2023/11/19 02:05:16;;;;;;;4.60;3.50;;;;;;;0.37;86.84;95828.98;106790;1274;23004;-81
2023/11/19 02:07:46;;;;;;;5.80;3.80;;;;;;;0.32;86.72;95823.84;106772;1275;25255;-81
2023/11/19 02:10:16;;;;;;;6.70;4.00;;;;;;;0.22;86.39;95826.21;106835;1274;22522;-82
2023/11/19 02:12:46;;;;;;;4.80;3.50;;;;;;;0.15;86.61;95824.12;106825;1274;22523;-81
2023/11/19 02:15:14;;;;;;;6.50;4.50;;;;;;;0.12;86.71;95821.63;106809;1275;25366;-81
2023/11/19 02:17:43;;;;;;;5.50;3.70;;;;;;;0.13;86.97;95816.30;106786;1275;22676;-81
2023/11/19 02:20:14;;;;;;;5.20;4.10;;;;;;;0.17;87.68;95820.19;106714;1275;22523;-81
2023/11/19 02:22:44;;;;;;;6.40;4.10;;;;;;;0.19;87.41;95814.88;106795;1275;22538;-81
2023/11/19 02:25:32;;;;;;;5.70;4.70;;;;;;;0.18;87.58;95813.30;106678;1274;25961;-81
2023/11/19 02:28:02;;;;;;;7.30;4.50;;;;;;;0.28;88.16;95815.09;106735;1275;22636;-81
2023/11/19 02:30:31;;;;;;;6.60;5.10;;;;;;;0.40;88.25;95816.59;106758;1275;24465;-81
2023/11/19 02:33:05;;;;;;;5.50;4.20;;;;;;;0.48;87.55;95811.61;106622;1274;22580;-82
2023/11/19 02:35:33;;;;;;;;;;;;;;;0.49;87.33;95817.51;106889;1274;22502;-81
2023/11/19 02:38:03;;;;;;;6.70;4.80;;;;;;;0.52;87.17;95824.15;106691;1275;24323;-82
2023/11/19 02:40:32;;;;;;;7.40;5.00;;;;;;;0.51;86.89;95824.48;106691;1274;22530;-82
2023/11/19 02:43:00;;;;;;;5.40;4.30;;;;;;;0.49;86.66;95817.86;106761;1274;22527;-81
2023/11/19 02:45:30;;;;;;;4.90;3.80;;;;;;;0.50;86.95;95821.52;106804;1274;24264;-81
2023/11/19 02:48:01;;;;;;;4.40;3.20;;;;;;;0.48;86.57;95828.04;106825;1275;23158;-80
2023/11/19 02:50:31;;;;;;;3.30;2.30;;;;;;;0.36;85.76;95821.18;106847;1275;25253;-81
2023/11/19 02:53:01;;;;;;;3.30;2.40;;;;;;;0.16;85.03;95812.04;106691;1275;24240;-81
2023/11/19 02:55:34;;;;;;;2.80;2.10;;;;;;;-0.00;85.29;95814.57;106814;1274;22632;-81
2023/11/19 02:58:07;;;;;;;3.70;2.90;;;;;;;-0.10;85.87;95818.13;106857;1275;22878;-82
2023/11/19 03:00:39;;;;;;;5.10;4.00;;;;;;;-0.13;86.59;95827.38;106791;1274;25417;-82
2023/11/19 03:03:20;;;;;;;6.80;5.10;;;;;;;-0.13;86.82;95825.48;106804;1274;22639;-81
2023/11/19 03:05:49;;;;;;;7.20;4.90;;;;;;;-0.14;86.93;95831.68;106755;1275;23012;-81
2023/11/19 03:08:17;;;;;;;3.30;2.90;;;;;;;-0.13;86.93;95826.52;106688;1274;25300;-81
2023/11/19 03:10:49;;;;;;;3.30;2.60;;;;;;;-0.16;86.45;95825.58;106823;1274;22526;-81
2023/11/19 03:13:17;;;;;;;2.20;1.90;;;;;;;-0.19;86.49;95821.16;106631;1274;25740;-81
2023/11/19 03:15:46;;;;;;;4.40;2.70;;;;;;;-0.25;86.26;95813.77;106671;1274;22534;-81
2023/11/19 03:18:14;;;;;;;4.10;3.00;;;;;;;-0.30;86.65;95809.99;106742;1275;24290;-81
2023/11/19 03:20:42;;;;;;;4.00;2.90;;;;;;;-0.32;86.96;95806.83;106790;1274;22511;-81
2023/11/19 03:23:10;;;;;;;4.90;3.30;;;;;;;-0.32;87.66;95809.95;106781;1274;25436;-81
2023/11/19 03:25:38;;;;;;;7.60;4.00;;;;;;;-0.34;87.51;95811.11;106773;1274;23033;-81
2023/11/19 03:28:07;;;;;;;5.60;4.20;;;;;;;-0.35;87.31;95811.25;106860;1275;22539;-81
2023/11/19 03:30:35;;;;;;;6.30;4.60;;;;;;;-0.33;87.32;95812.70;106700;1275;25303;-81
2023/11/19 03:33:03;;;;;;;6.70;4.10;;;;;;;-0.30;87.28;95812.09;106746;1274;22635;-81
2023/11/19 03:35:33;;;;;;;5.30;3.70;;;;;;;-0.29;87.01;95803.63;106819;1274;25287;-81
2023/11/19 03:38:01;;;;;;;3.90;3.50;;;;;;;-0.27;87.02;95803.17;106929;1274;22640;-81
2023/11/19 03:40:29;;;;;;;8.20;4.90;;;;;;;-0.23;87.73;95801.20;106799;1275;22827;-82
2023/11/19 03:42:58;;;;;;;6.80;3.80;;;;;;;-0.14;87.77;95797.25;106764;1274;23377;-80
2023/11/19 03:45:27;;;;;;;3.50;2.30;;;;;;;-0.07;87.83;95789.68;106832;1274;22664;-81
2023/11/19 03:47:55;;;;;;;2.50;2.00;;;;;;;-0.05;87.20;95782.27;106609;1274;24279;-81
2023/11/19 03:50:23;;;;;;;2.20;1.70;;;;;;;-0.11;86.39;95778.33;106887;1274;22526;-81
2023/11/19 03:52:52;;;;;;;5.70;3.20;;;;;;;-0.22;86.18;95784.80;106715;1275;22762;-81
2023/11/19 03:55:20;;;;;;;2.30;2.00;;;;;;;-0.25;86.38;95780.21;106778;1275;22579;-81
2023/11/19 03:57:49;;;;;;;3.30;2.20;;;;;;;-0.29;86.26;95778.58;106798;1274;22805;-80
2023/11/19 04:00:17;;;;;;;2.80;2.00;;;;;;;-0.35;86.18;95783.61;106874;1274;22523;-81
2023/11/19 04:02:46;;;;;;;3.40;1.80;;;;;;;-0.36;86.52;95790.31;106781;1274;25569;-80
2023/11/19 04:05:15;;;;;;;2.10;1.70;;;;;;;-0.31;86.91;95788.89;106809;1274;22595;-81
2023/11/19 04:07:44;;;;;;;2.10;1.70;;;;;;;-0.27;86.83;95778.95;106807;1274;25391;-80
2023/11/19 04:10:12;;;;;;;3.10;1.90;;;;;;;-0.26;86.43;95777.95;106786;1274;26615;-81
2023/11/19 04:12:40;;;;;;;3.10;2.20;;;;;;;-0.24;86.64;95777.30;106668;1275;25449;-81
2023/11/19 04:15:09;;;;;;;3.30;2.00;;;;;;;-0.31;86.16;95770.05;106716;1274;25246;-80
2023/11/19 04:17:37;;;;;;;2.00;1.70;;;;;;;-0.38;86.03;95761.20;106774;1274;25310;-80
2023/11/19 04:20:10;;;;;;;20.40;18.40;;;;;;;-0.40;86.58;95758.05;106825;1274;22522;-80
2023/11/19 04:22:38;;;;;;;3.50;3.20;;;;;;;-0.46;85.99;95757.38;106799;1275;25297;-80
2023/11/19 04:25:07;;;;;;;2.10;1.70;;;;;;;-0.60;85.46;95762.88;106811;1274;22531;-80
2023/11/19 04:27:35;;;;;;;2.00;1.50;;;;;;;-0.69;85.56;95772.67;106708;1274;22538;-80
2023/11/19 04:30:05;;;;;;;2.70;1.80;;;;;;;-0.77;85.71;95772.09;106754;1275;24060;-81
2023/11/19 04:32:33;;;;;;;4.20;2.90;;;;;;;-0.82;85.67;95770.58;106699;1275;22635;-81
2023/11/19 04:35:02;;;;;;;3.20;2.00;;;;;;;-0.87;85.69;95769.41;106694;1274;25354;-80
2023/11/19 04:37:30;;;;;;;5.60;4.30;;;;;;;-0.94;85.62;95769.23;106640;1275;25514;-80
2023/11/19 04:39:59;;;;;;;2.80;2.10;;;;;;;-1.05;85.49;95766.29;106800;1274;25519;-80
2023/11/19 04:42:29;;;;;;;2.60;1.70;;;;;;;-1.12;86.05;95755.77;106883;1275;22660;-79
2023/11/19 04:44:57;;;;;;;2.30;1.70;;;;;;;-1.16;86.10;95750.28;106731;1274;22521;-80
2023/11/19 04:47:25;;;;;;;2.50;1.90;;;;;;;-1.23;85.87;95742.48;106644;1274;22534;-80
2023/11/19 04:49:53;;;;;;;2.40;1.50;;;;;;;-1.28;86.06;95738.73;106793;1274;24251;-80
2023/11/19 04:52:21;;;;;;;2.20;1.60;;;;;;;-1.33;86.02;95734.27;106628;1275;22576;-80
2023/11/19 04:54:49;;;;;;;2.20;1.70;;;;;;;-1.38;86.03;95732.89;106797;1274;25306;-80
2023/11/19 04:57:18;;;;;;;2.70;2.00;;;;;;;-1.42;85.96;95734.33;106718;1275;22475;-80
2023/11/19 04:59:46;;;;;;;2.30;1.80;;;;;;;-1.47;85.94;95734.02;106797;1274;25419;-79
2023/11/19 05:02:15;;;;;;;2.80;1.90;;;;;;;-1.52;86.11;95735.95;106870;1275;26656;-79
2023/11/19 05:04:48;;;;;;;3.00;1.60;;;;;;;-1.57;86.19;95733.19;106801;1274;22527;-80
2023/11/19 05:07:17;;;;;;;2.40;2.00;;;;;;;-1.65;86.26;95733.63;106708;1274;22635;-79
2023/11/19 05:09:45;;;;;;;2.70;2.20;;;;;;;-1.67;86.24;95739.96;106830;1274;24362;-79
2023/11/19 05:12:14;;;;;;;3.20;2.20;;;;;;;-1.67;86.47;95745.30;106803;1274;25291;-80
2023/11/19 05:14:49;;;;;;;2.60;2.00;;;;;;;-1.69;86.18;95747.50;106643;1275;24329;-79
2023/11/19 05:17:18;;;;;;;2.70;2.00;;;;;;;-1.72;86.20;95747.91;106718;1274;22652;-79
2023/11/19 05:19:47;;;;;;;3.90;2.30;;;;;;;-1.73;86.40;95750.29;106828;1275;24480;-80
2023/11/19 05:22:17;;;;;;;3.90;2.50;;;;;;;-1.69;86.78;95756.61;106777;1274;22519;-80
2023/11/19 05:24:45;;;;;;;3.60;2.10;;;;;;;-1.72;86.40;95762.23;106889;1275;24162;-80
2023/11/19 05:27:13;;;;;;;2.00;1.70;;;;;;;-1.73;86.52;95771.52;106816;1275;22527;-80
2023/11/19 05:29:42;;;;;;;4.90;1.90;;;;;;;-1.72;86.59;95770.16;106691;1274;22678;-79
2023/11/19 05:32:11;;;;;;;3.90;2.20;;;;;;;-1.69;86.80;95768.50;106814;1274;22537;-79
2023/11/19 05:34:39;;;;;;;2.40;2.00;;;;;;;-1.68;86.83;95762.02;106887;1274;25304;-79
2023/11/19 05:37:10;;;;;;;2.90;2.20;;;;;;;-1.68;86.52;95762.19;106803;1274;22916;-79
2023/11/19 05:39:39;;;;;;;2.90;2.20;;;;;;;-1.71;86.38;95773.64;106656;1274;22533;-79
2023/11/19 05:42:07;;;;;;;2.50;1.80;;;;;;;-1.64;87.24;95770.76;106668;1275;25306;-79
2023/11/19 05:44:35;;;;;;;2.20;1.90;;;;;;;-1.55;87.23;95771.21;106907;1275;25287;-80
2023/11/19 05:47:06;;;;;;;2.20;1.80;;;;;;;-1.50;87.03;95766.02;106689;1275;22661;-79
2023/11/19 05:49:35;;;;;;;3.80;2.10;;;;;;;-1.43;86.93;95757.95;106709;1275;22593;-79
2023/11/19 05:52:07;;;;;;;3.30;2.40;;;;;;;-1.42;86.33;95759.70;106782;1274;22648;-79
2023/11/19 05:54:37;;;;;;;3.10;2.20;;;;;;;-1.47;85.84;95755.74;106833;1275;22486;-80
2023/11/19 05:57:09;;;;;;;3.00;2.50;;;;;;;-1.46;86.28;95761.98;106770;1274;25421;-80
2023/11/19 05:59:37;;;;;;;2.90;2.10;;;;;;;-1.52;85.62;95768.04;106758;1274;24093;-79
2023/11/19 06:02:05;;;;;;;3.20;2.30;;;;;;;-1.55;86.03;95765.52;106616;1275;22540;-80
2023/11/19 06:04:33;;;;;;;6.70;2.40;;;;;;;-1.55;86.14;95756.23;106806;1275;22921;-80
2023/11/19 06:07:02;;;;;;;3.50;2.40;;;;;;;-1.53;86.19;95755.91;106944;1275;24001;-80
2023/11/19 06:09:30;;;;;;;4.20;2.60;;;;;;;-1.53;85.94;95750.42;106825;1274;22638;-80
2023/11/19 06:11:58;;;;;;;2.80;2.10;;;;;;;-1.53;86.01;95748.15;106809;1274;24095;-80
2023/11/19 06:14:26;;;;;;;2.80;2.20;;;;;;;-1.54;85.90;95752.97;106759;1275;24047;-80
2023/11/19 06:16:54;;;;;;;3.40;2.30;;;;;;;-1.56;85.77;95753.09;106773;1275;22998;-79
2023/11/19 06:19:24;;;;;;;3.40;2.60;;;;;;;-1.61;85.67;95752.05;106665;1275;22547;-79
2023/11/19 06:21:56;;;;;;;3.50;2.70;;;;;;;-1.66;85.74;95755.20;106768;1274;25297;-80
2023/11/19 06:24:24;;;;;;;3.40;2.70;;;;;;;-1.63;86.16;95758.20;106837;1275;22530;-80
2023/11/19 06:26:52;;;;;;;6.50;4.80;;;;;;;-1.60;86.36;95763.82;106741;1275;25326;-79
2023/11/19 06:29:20;;;;;;;9.10;6.10;;;;;;;-1.56;86.54;95762.05;106759;1274;24253;-80
2023/11/19 06:31:48;;;;;;;7.10;5.20;;;;;;;-1.54;87.03;95757.10;106647;1275;24219;-80
2023/11/19 06:34:17;;;;;;;13.60;7.90;;;;;;;-1.54;87.18;95750.37;106797;1275;22928;-80
2023/11/19 06:36:45;;;;;;;20.60;10.20;;;;;;;-1.54;88.56;95743.64;106757;1274;25285;-80
2023/11/19 06:39:13;;;;;;;17.30;10.10;;;;;;;-1.50;88.88;95740.51;106743;1274;22520;-80
2023/11/19 06:41:46;;;;;;;16.10;9.10;;;;;;;-1.45;89.02;95735.80;106637;1275;24452;-80
2023/11/19 06:44:15;;;;;;;18.60;10.10;;;;;;;-1.39;88.66;95729.96;106789;1263;24221;-80
2023/11/19 06:46:43;;;;;;;11.40;8.20;;;;;;;-1.31;88.42;95725.34;106798;1275;22536;-80
2023/11/19 06:49:11;;;;;;;23.70;12.90;;;;;;;-1.25;88.25;95720.84;106820;1275;25304;-80
2023/11/19 06:51:43;;;;;;;28.20;15.80;;;;;;;-1.20;88.25;95720.30;106786;1275;25438;-80
2023/11/19 06:54:12;;;;;;;27.90;16.90;;;;;;;-1.15;88.18;95716.31;106782;1275;22850;-80
2023/11/19 06:56:41;;;;;;;33.10;16.80;;;;;;;-1.09;88.22;95717.34;106582;1275;217688;-80
2023/11/19 06:59:09;;;;;;;40.90;20.80;;;;;;;-1.04;88.30;95718.86;106771;1252;22532;-80
2023/11/19 07:01:38;;;;;;;47.10;23.70;;;;;;;-0.99;88.42;95717.27;106800;1275;24941;-80
2023/11/19 07:04:09;;;;;;;49.40;24.20;;;;;;;-0.96;88.39;95713.55;106684;1275;22544;-80
2023/11/19 07:06:38;;;;;;;36.40;21.20;;;;;;;-0.93;88.68;95715.88;106687;1274;24278;-80
2023/11/19 07:09:09;;;;;;;31.10;18.70;;;;;;;-0.86;88.95;95715.89;106812;1274;22521;-80
2023/11/19 07:11:40;;;;;;;24.80;15.80;;;;;;;-0.77;88.93;95710.95;106978;1275;25369;-81
2023/11/19 07:14:08;;;;;;;24.00;14.20;;;;;;;-0.68;88.64;95714.98;106779;1274;24298;-81
2023/11/19 07:16:38;;;;;;;23.60;13.90;;;;;;;-0.57;88.62;95724.27;106796;1262;22538;-81
2023/11/19 07:19:07;;;;;;;20.80;13.20;;;;;;;-0.48;88.12;95720.88;106785;1274;22528;-81
2023/11/19 07:21:39;;;;;;;17.90;11.40;;;;;;;-0.42;87.91;95718.77;106740;1275;24320;-81
2023/11/19 07:24:07;;;;;;;19.10;12.80;;;;;;;-0.35;87.87;95727.75;106790;1275;25506;-81
2023/11/19 07:26:37;;;;;;;18.30;12.00;;;;;;;-0.26;87.75;95733.89;106772;1274;22654;-81
2023/11/19 07:29:07;;;;;;;16.30;11.10;;;;;;;-0.13;87.58;95736.27;106813;1274;25252;-81
2023/11/19 07:31:36;;;;;;;16.40;10.70;;;;;;;-0.05;87.01;95735.79;106943;1262;22817;-82
2023/11/19 07:34:06;;;;;;;14.20;9.60;;;;;;;0.05;87.07;95734.80;106898;1274;25503;-82
2023/11/19 07:36:35;;;;;;;17.60;10.80;;;;;;;0.16;86.85;95740.24;106882;1274;25249;-81
2023/11/19 07:39:04;;;;;;;26.80;13.20;;;;;;;0.28;86.59;95737.41;106786;1275;22527;-82
2023/11/19 07:41:33;;;;;;;15.90;10.80;;;;;;;0.41;86.51;95743.27;106763;1275;22590;-82
2023/11/19 07:44:04;;;;;;;17.40;10.70;;;;;;;0.53;86.16;95747.66;106780;1275;25249;-82
2023/11/19 07:46:32;;;;;;;20.10;12.70;;;;;;;0.62;85.83;95743.52;106897;1274;25382;-82
2023/11/19 07:49:02;;;;;;;20.20;13.00;;;;;;;0.69;85.35;95736.09;106895;1274;22530;-82
2023/11/19 07:51:30;;;;;;;16.00;10.80;;;;;;;0.73;84.63;95730.28;107019;1274;25370;-83
2023/11/19 07:53:59;;;;;;;13.50;9.20;;;;;;;0.75;83.86;95727.05;106792;1274;24281;-83
2023/11/19 07:56:27;;;;;;;14.00;9.60;;;;;;;0.76;83.46;95722.91;106811;1275;22524;-82
2023/11/19 07:58:56;;;;;;;15.00;9.80;;;;;;;0.77;83.52;95716.52;106945;1274;25319;-83
2023/11/19 08:01:24;;;;;;;15.40;10.00;;;;;;;0.79;83.44;95728.67;106967;1275;25227;-82
2023/11/19 08:03:52;;;;;;;11.20;7.50;;;;;;;0.74;83.35;95729.60;107016;1274;22524;-83
2023/11/19 08:06:23;;;;;;;12.60;8.00;;;;;;;0.70;83.13;95728.66;107114;1275;22531;-82
2023/11/19 08:08:51;;;;;;;12.60;8.90;;;;;;;0.65;83.41;95733.24;106876;1274;22561;-82
2023/11/19 08:11:20;;;;;;;12.70;8.40;;;;;;;0.63;83.59;95735.77;107131;1274;22648;-82
2023/11/19 08:13:48;;;;;;;17.10;10.40;;;;;;;0.64;84.11;95735.80;107107;1274;25503;-82
2023/11/19 08:16:16;;;;;;;15.20;9.50;;;;;;;0.70;84.40;95742.87;107002;1274;24363;-82
2023/11/19 08:18:44;;;;;;;12.00;7.90;;;;;;;0.72;84.34;95741.86;107133;1275;25613;-82
2023/11/19 08:21:13;;;;;;;10.00;6.70;;;;;;;0.75;83.88;95742.61;107051;1274;22642;-82
2023/11/19 08:23:42;;;;;;;12.00;8.60;;;;;;;0.78;83.80;95740.23;106995;1274;22665;-82
2023/11/19 08:26:10;;;;;;;12.70;8.60;;;;;;;0.81;83.73;95726.30;106893;1274;24649;-82
2023/11/19 08:28:38;;;;;;;14.60;9.10;;;;;;;0.89;83.92;95713.98;107047;1274;24386;-82
2023/11/19 08:31:07;;;;;;;14.90;9.50;;;;;;;0.99;84.00;95716.96;107043;1274;22574;-82
2023/11/19 08:33:35;;;;;;;15.40;10.30;;;;;;;1.05;83.82;95721.24;107134;1272;22538;-82
2023/11/19 08:36:04;;;;;;;12.50;8.90;;;;;;;1.07;83.32;95725.62;107098;1274;22530;-82
2023/11/19 08:38:32;;;;;;;15.50;10.20;;;;;;;1.06;83.15;95723.69;107121;1274;22533;-80
2023/11/19 08:41:01;;;;;;;14.40;9.60;;;;;;;1.18;83.70;95726.52;107025;1266;25425;-81
2023/11/19 08:43:31;;;;;;;14.50;9.70;;;;;;;1.36;83.94;95728.59;107046;1274;22530;-81
2023/11/19 08:46:00;;;;;;;12.60;8.90;;;;;;;1.51;83.49;95726.63;107023;1275;22634;-82
2023/11/19 08:48:28;;;;;;;14.80;9.20;;;;;;;1.63;82.96;95730.65;106808;1274;25304;-81
2023/11/19 08:50:56;;;;;;;14.50;8.50;;;;;;;1.69;82.67;95736.34;106656;1274;25405;-82
2023/11/19 08:53:24;;;;;;;10.10;7.00;;;;;;;1.71;81.90;95739.65;106755;1274;25316;-80
2023/11/19 08:55:52;;;;;;;8.30;5.80;;;;;;;1.80;82.10;95745.17;106812;1275;25284;-82
2023/11/19 08:58:21;;;;;;;9.20;6.20;;;;;;;1.85;80.79;95745.61;106646;1265;23007;-82
2023/11/19 09:00:49;;;;;;;14.20;8.10;;;;;;;1.92;80.89;95744.36;106788;1274;22695;-81
2023/11/19 09:03:17;;;;;;;11.70;7.10;;;;;;;2.04;80.69;95740.20;106773;1275;22509;-78
2023/11/19 09:05:46;;;;;;;9.10;5.90;;;;;;;2.08;80.29;95736.11;106734;1274;24063;-81
2023/11/19 09:08:14;;;;;;;8.30;5.30;;;;;;;2.01;79.35;95730.79;106839;1274;25439;-80
2023/11/19 09:10:42;;;;;;;8.10;4.50;;;;;;;1.86;79.44;95723.60;106649;1274;22511;-81
2023/11/19 09:13:10;;;;;;;8.40;6.10;;;;;;;1.83;80.10;95718.18;106663;1275;22662;-80
2023/11/19 09:15:38;;;;;;;10.10;6.20;;;;;;;1.85;80.09;95710.05;106827;1275;25249;-80
2023/11/19 09:18:07;;;;;;;9.00;6.50;;;;;;;1.90;80.05;95704.95;106816;1274;24493;-81
2023/11/19 09:20:38;;;;;;;7.80;5.70;;;;;;;1.96;79.90;95710.59;106742;1274;22531;-81
2023/11/19 09:23:08;;;;;;;8.80;6.30;;;;;;;1.94;79.24;95699.27;106702;1274;22531;-80
2023/11/19 09:25:37;;;;;;;9.40;5.80;;;;;;;1.86;79.08;95692.38;106839;1274;22542;-81
2023/11/19 09:28:08;;;;;;;8.50;6.30;;;;;;;1.79;79.70;95693.30;106652;1274;22524;-81
2023/11/19 09:30:37;;;;;;;9.10;6.00;;;;;;;1.73;80.10;95694.41;106893;1274;22557;-81
2023/11/19 09:33:06;;;;;;;8.80;5.70;;;;;;;1.66;80.16;95696.90;106807;1274;24263;-81
2023/11/19 09:35:34;;;;;;;6.10;4.50;;;;;;;1.57;80.33;95697.95;106724;1274;24344;-81
2023/11/19 09:38:02;;;;;;;7.80;5.40;;;;;;;1.53;80.48;95693.72;106760;1274;24285;-80
2023/11/19 09:40:32;;;;;;;7.80;4.90;;;;;;;1.54;80.62;95686.98;106672;1275;25764;-81
2023/11/19 09:43:01;;;;;;;9.60;6.40;;;;;;;1.53;80.30;95683.85;106825;1275;22549;-80
2023/11/19 09:45:36;;;;;;;11.30;8.40;;;;;;;1.67;80.54;95675.41;106732;1275;23923;-79
2023/11/19 09:48:06;;;;;;;7.20;4.40;;;;;;;1.93;80.73;95677.23;106815;1275;25584;-80
2023/11/19 09:50:34;;;;;;;7.90;5.60;;;;;;;2.08;79.61;95678.52;106840;1275;24404;-83
2023/11/19 09:53:02;;;;;;;6.70;4.90;;;;;;;2.20;79.16;95669.13;106809;1274;24279;-81
2023/11/19 09:55:30;;;;;;;7.50;5.50;;;;;;;2.22;78.26;95676.27;106755;1274;22795;-82
2023/11/19 09:58:01;;;;;;;8.00;5.40;;;;;;;2.19;78.19;95688.73;106813;1275;24375;-81
2023/11/19 10:00:30;;;;;;;9.80;6.20;;;;;;;2.15;78.30;95712.29;106745;1274;24270;-81
2023/11/19 10:02:59;;;;;;;5.80;4.60;;;;;;;2.04;78.23;95727.56;106783;1274;24895;-81
2023/11/19 10:05:28;;;;;;;7.60;5.40;;;;;;;1.99;78.35;95731.79;106742;1275;22524;-80
2023/11/19 10:07:57;;;;;;;11.20;6.50;;;;;;;2.01;78.82;95711.37;106888;1275;22527;-80
2023/11/19 10:10:25;;;;;;;12.30;7.30;;;;;;;2.07;78.87;95689.60;106768;1274;22594;-81
2023/11/19 10:12:54;;;;;;;12.40;7.70;;;;;;;2.05;78.91;95689.05;106873;1275;25400;-80
2023/11/19 10:15:26;;;;;;;16.20;9.80;;;;;;;2.00;78.80;95676.30;106804;1275;23736;-80
2023/11/19 10:17:56;;;;;;;11.10;6.90;;;;;;;1.96;78.90;95678.15;106826;1274;25290;-84
2023/11/19 10:20:25;;;;;;;10.60;6.50;;;;;;;1.92;79.56;95675.30;106854;1274;22556;-81
2023/11/19 10:22:55;;;;;;;9.80;6.20;;;;;;;1.88;80.08;95668.13;106858;1274;25614;-80
2023/11/19 10:25:27;;;;;;;8.70;5.80;;;;;;;1.91;80.35;95664.70;106823;1275;24324;-81
2023/11/19 10:27:57;;;;;;;6.70;4.80;;;;;;;1.90;80.10;95664.69;106755;1275;22730;-81
2023/11/19 10:30:27;;;;;;;6.80;4.90;;;;;;;1.88;80.25;95661.55;106757;1275;25369;-81
2023/11/19 10:33:08;;;;;;;7.40;4.90;;;;;;;1.87;80.61;95652.84;106823;1274;22566;-82
2023/11/19 10:35:53;;;;;;;7.60;5.30;;;;;;;1.97;80.88;95644.16;106716;1275;22528;-80
2023/11/19 10:38:25;;;;;;;10.60;7.50;;;;;;;2.06;80.39;95646.38;106725;1274;22548;-81
2023/11/19 10:40:54;;;;;;;11.30;7.00;;;;;;;2.12;79.69;95644.91;106836;1275;22646;-81
2023/11/19 10:43:23;;;;;;;12.30;6.60;;;;;;;2.24;80.00;95635.86;106745;1275;23007;-82
2023/11/19 10:45:52;;;;;;;12.30;7.10;;;;;;;2.33;79.29;95635.49;106785;1274;24268;-81
2023/11/19 10:48:21;;;;;;;8.40;5.90;;;;;;;2.42;78.76;95638.91;106648;1275;24242;-81
2023/11/19 10:50:55;;;;;;;8.50;5.70;;;;;;;2.52;78.76;95644.41;106816;1274;25365;-81
2023/11/19 10:53:26;;;;;;;11.60;6.90;;;;;;;2.53;77.71;95645.65;106928;1274;25252;-81
2023/11/19 10:55:58;;;;;;;8.20;5.60;;;;;;;2.46;76.95;95643.83;106832;1272;24215;-81
2023/11/19 10:58:29;;;;;;;23.00;10.60;;;;;;;2.37;77.47;95646.65;106774;1274;22653;-81
2023/11/19 11:01:05;;;;;;;7.20;5.90;;;;;;;2.37;77.66;95652.39;106799;1275;23387;-81
2023/11/19 11:03:40;;;;;;;7.50;5.90;;;;;;;2.48;78.17;95640.91;106771;1274;25249;-81
2023/11/19 11:06:10;;;;;;;14.10;9.40;;;;;;;2.68;78.65;95637.67;106638;1275;22528;-81
2023/11/19 11:08:39;;;;;;;7.90;6.10;;;;;;;2.77;77.26;95646.13;106848;1275;22513;-80
2023/11/19 11:11:09;;;;;;;11.20;6.00;;;;;;;2.67;76.23;95660.06;106715;1274;25303;-81
2023/11/19 11:13:42;;;;;;;7.90;6.00;;;;;;;2.60;76.60;95655.81;106757;1251;25517;-81
2023/11/19 11:16:11;;;;;;;8.00;5.70;;;;;;;2.52;76.60;95653.96;106802;1275;22761;-81
2023/11/19 11:18:39;;;;;;;7.10;5.20;;;;;;;2.44;76.54;95651.61;106687;1275;22542;-80
2023/11/19 11:21:18;;;;;;;8.00;5.30;;;;;;;2.37;76.56;95658.46;106793;1275;22521;-81
2023/11/19 11:24:14;;;;;;;7.40;5.60;;;;;;;2.31;76.94;95659.05;106757;1274;22537;-81
2023/11/19 11:27:08;;;;;;;9.40;6.30;;;;;;;2.41;76.99;95665.98;106482;1275;24383;-81
2023/11/19 11:30:02;;;;;;;9.10;6.70;;;;;;;2.69;76.85;95667.40;106858;1275;22533;-81
2023/11/19 11:32:56;;;;;;;8.50;6.80;;;;;;;3.13;76.52;95668.79;106735;1275;22528;-82
2023/11/19 11:35:31;;;;;;;6.70;4.90;;;;;;;3.87;75.07;95673.34;106791;1274;22668;-81
2023/11/19 11:38:07;;;;;;;6.90;5.20;;;;;;;4.49;72.86;95659.70;106845;1274;22548;-82